Consulta les dades en temps real de l'estació municipal de Susqueda - Veïnat del Coll
| Hora UTC | 03:50 |
|---|---|
| Temperatura | 7.6 ºC |
| Humitat | 99.6 % |
| Pressió | 1011.1 hPa |
| Pluja | 0.1 mm |
| Velocitat vent | 7.9 km/h |
| Direcció vent | SSW |
| Radiació solar | 0.1 W/m² |
| Temperatura (ºC) | Humitat (%) | Pressió (hPa) | Velocitat vent (km/h) | Precipitació (mm) | Radiació solar (W/m²) | |||||||||||||
|---|---|---|---|---|---|---|---|---|---|---|---|---|---|---|---|---|---|---|
| Hora UTC | Aire | Humitat | Pressió | Vel. | Dir. | Vel. Max | Dir. | Intent. màx 5 min. | Rad. Sol. | |||||||||
| 00:05 | 8.0 | 99.4 | 1013.0 | 5.5 | W | 5.5 | W | 0.0 | 0.1 | |||||||||
| 00:10 | 7.9 | 99.4 | 1013.0 | 3.6 | WSW | 10.6 | WSW | 0.0 | 0.1 | |||||||||
| 00:15 | 7.8 | 99.3 | 1012.9 | 2.7 | WSW | 12.0 | SW | 0.0 | 0.1 | |||||||||
| 00:20 | 7.8 | 99.3 | 1012.9 | 2.1 | S | 6.0 | WSW | 0.0 | 0.1 | |||||||||
| 00:25 | 7.7 | 99.4 | 1012.8 | 2.3 | SW | 9.5 | WNW | 0.0 | 0.1 | |||||||||
| 00:30 | 7.7 | 99.4 | 1012.8 | 1.9 | SSW | 6.4 | S | 0.0 | 0.1 | |||||||||
| 00:35 | 7.8 | 99.5 | 1012.6 | 3.7 | SW | 9.2 | WSW | 0.0 | 0.1 | |||||||||
| 00:40 | 7.7 | 99.4 | 1012.6 | 2.6 | SSW | 9.5 | SSW | 0.0 | 0.1 | |||||||||
| 00:45 | 7.7 | 99.5 | 1012.3 | 3.3 | SSW | 11.6 | SSW | 0.0 | 0.1 | |||||||||
| 00:50 | 7.7 | 99.5 | 1012.3 | 0.8 | E | 4.2 | ESE | 0.0 | 0.1 | |||||||||
| 00:55 | 7.8 | 99.5 | 1012.3 | 3.3 | ESE | 10.9 | SE | 0.0 | 0.1 | |||||||||
| 01:00 | 7.8 | 99.5 | 1012.3 | 2.9 | E | 8.8 | NNE | 0.0 | 0.1 | |||||||||
| 01:05 | 7.7 | 99.4 | 1012.3 | 2.0 | SSE | 5.3 | SSW | 0.0 | 0.1 | |||||||||
| 01:10 | 7.7 | 99.4 | 1012.3 | 4.6 | SSW | 9.2 | WSW | 0.0 | 0.1 | |||||||||
| 01:15 | 7.7 | 99.4 | 1012.2 | 3.8 | SSW | 7.8 | SSW | 0.0 | 0.1 | |||||||||
| 01:20 | 7.6 | 99.4 | 1012.2 | 4.9 | SSW | 10.6 | SW | 0.0 | 0.1 | |||||||||
| 01:25 | 7.5 | 99.4 | 1012.1 | 3.7 | SW | 10.9 | WSW | 0.0 | 0.1 | |||||||||
| 01:30 | 7.5 | 99.5 | 1012.1 | 3.5 | WSW | 10.6 | W | 0.0 | 0.1 | |||||||||
| 01:35 | 7.6 | 99.6 | 1012.0 | 3.6 | S | 8.8 | SW | 0.0 | 0.1 | |||||||||
| 01:40 | 7.6 | 99.6 | 1012.0 | 2.6 | S | 6.7 | SSE | 0.0 | 0.1 | |||||||||
| 01:45 | 7.6 | 99.6 | 1011.9 | 4.0 | SW | 11.6 | SW | 0.0 | 0.1 | |||||||||
| 01:50 | 7.6 | 99.6 | 1011.9 | 3.1 | SW | 7.4 | SW | 0.0 | 0.1 | |||||||||
| 01:55 | 7.6 | 99.5 | 1011.8 | 3.7 | WSW | 9.2 | SSW | 0.0 | 0.1 | |||||||||
| 02:00 | 7.6 | 99.5 | 1011.8 | 3.5 | S | 9.2 | SW | 0.0 | 0.1 | |||||||||
| 02:05 | 7.6 | 99.5 | 1011.7 | 2.3 | SSW | 6.4 | SSW | 0.0 | 0.1 | |||||||||
| 02:10 | 7.6 | 99.5 | 1011.7 | 3.6 | SW | 10.9 | W | 0.0 | 0.1 | |||||||||
| 02:15 | 7.6 | 99.5 | 1011.5 | 4.9 | SSW | 8.5 | SSW | 0.0 | 0.1 | |||||||||
| 02:20 | 7.6 | 99.5 | 1011.5 | 3.3 | SW | 9.5 | W | 0.0 | 0.1 | |||||||||
| 02:25 | 7.6 | 99.5 | 1011.5 | 4.1 | WSW | 8.8 | S | 0.0 | 0.1 | |||||||||
| 02:30 | 7.6 | 99.5 | 1011.5 | 3.3 | SW | 7.4 | SW | 0.0 | 0.1 | |||||||||
| 02:35 | 7.6 | 99.5 | 1011.5 | 4.4 | SW | 9.2 | SSW | 0.0 | 0.1 | |||||||||
| 02:40 | 7.6 | 99.5 | 1011.5 | 5.2 | SSW | 11.6 | WSW | 0.0 | 0.1 | |||||||||
| 02:45 | 7.6 | 99.6 | 1011.4 | 5.3 | SW | 13.8 | SSW | 0.1 | 0.1 | |||||||||
| 02:50 | 7.6 | 99.6 | 1011.4 | 6.1 | S | 16.6 | SSW | 0.0 | 0.1 | |||||||||
| 02:55 | 7.6 | 99.6 | 1011.3 | 5.6 | SSW | 20.1 | SSW | 0.0 | 0.1 | |||||||||
| 03:00 | 7.6 | 99.6 | 1011.3 | 8.9 | SW | 32.1 | W | 0.0 | 0.1 | |||||||||
| 03:05 | 7.6 | 99.6 | 1011.1 | 7.9 | SW | 22.2 | WNW | 0.0 | 0.1 | |||||||||
| 03:10 | 7.6 | 99.6 | 1011.1 | 9.2 | SW | 24.7 | WSW | 0.0 | 0.1 | |||||||||
| 03:15 | 7.5 | 99.6 | 1010.9 | 8.3 | SW | 31.8 | WSW | 0.0 | 0.1 | |||||||||
| 03:20 | 7.5 | 99.6 | 1010.9 | 8.1 | SW | 22.2 | W | 0.0 | 0.1 | |||||||||
| 03:25 | 7.5 | 99.6 | 1011.1 | 8.3 | SSW | 22.6 | W | 0.0 | 0.1 | |||||||||
| 03:30 | 7.5 | 99.7 | 1011.1 | 8.1 | SW | 25.4 | SW | 0.0 | 0.1 | |||||||||
| 03:35 | 7.5 | 99.7 | 1011.0 | 8.6 | SSW | 27.5 | S | 0.0 | 0.1 | |||||||||
| 03:40 | 7.6 | 99.7 | 1011.0 | 7.5 | SSW | 31.4 | WSW | 0.0 | 0.1 | |||||||||
| 03:45 | 7.5 | 99.7 | 1011.1 | 4.9 | SW | 15.5 | S | 0.0 | 0.1 | |||||||||
| 03:50 | 7.6 | 99.6 | 1011.1 | 7.9 | SSW | 21.2 | SSW | 0.0 | 0.1 | |||||||||
| Màxima | 8.0 | 99.7 | 1013.0 | 9.2 | SW | 32.1 | W | 0.1 | 0.1 | |||||||||
| Mínima | 7.5 | 99.3 | 1010.9 | |||||||||||||||
| Total | 0.1 | |||||||||||||||||